Relatórios de METAR próximas

 

LPAR - Alverca, Portugal
Distance from station: S 38km
Actualizado: 23/03/2020 11:00
NÃO Actual
Few Clouds
Few Clouds
 Vento de NE
Vento: NE 17 km/h
Temperatura: 17°C
Ponto de Orvalho: 10°C
Humidade: 64%
Barómetro: 1014 hPa
Nuvens: Few Clouds
Visibilidade: 10 km
Cloud details: Few Clouds 610 m
2020/03/23 11:00 LPAR 231100Z 05009KT 9999 FEW020 17/10 Q1014
LPPT - Lisbon/Portela, Portugal
Distance from station: S 52km
Actualizado: 28/03/2020 11:00
Céu Limpo
Céu Limpo
 Vento de NE
Vento: NE 24 km/h
Temperatura: 14°C
Ponto de Orvalho: 5°C
Humidade: 55%
Barómetro: 1016 hPa
Resumo: Céu Limpo
Visibilidade: greater than 10 km
2020/03/28 11:00 LPPT 281100Z 04013KT 010V080 CAVOK 14/05 Q1016
 
LPST - Sintra/Granja (a, Portugal
Distance from station: SSO 53km
Actualizado: 20/03/2020 11:00
NÃO Actual
Muito Nublado
Muito Nublado
 Vento de NNO
Vento: NNO 7 km/h
Temperatura: 12°C
Ponto de Orvalho: 11°C
Humidade: 94%
Barómetro: 1014 hPa
Nuvens: Muito Nublado
Visibilidade: 10 km
Cloud details: Parc. Nublado 244 m
Parc. Nublado 457 m
Muito Nublado 914 m
2020/03/20 11:00 LPST 201100Z 33004KT 9999 SCT008 SCT015 BKN030 12/11 Q1014
LPMT - Montijo (por-Afb, Portugal
Distance from station: S 59km
Actualizado: 28/03/2020 10:00
NÃO Actual
Céu Limpo
Céu Limpo
 Vento de ENE
Vento: ENE 24 km/h
Temperatura: 14°C
Ponto de Orvalho: 4°C
Humidade: 51%
Barómetro: 1016 hPa
Resumo: Céu Limpo
Visibilidade: greater than 10 km
2020/03/28 10:00 LPMT 281000Z 06013KT CAVOK 14/04 Q1016
 
LPCS - Cascais, Portugal
Distance from station: SSO 63km
Actualizado: 28/03/2020 11:00
Céu Limpo
Céu Limpo
 Vento de varies
Vento: varies 17 km/h
Temperatura: 15°C
Ponto de Orvalho: 4°C
Humidade: 48%
Barómetro: 1016 hPa
Resumo: Céu Limpo
Visibilidade: greater than 10 km
2020/03/28 11:00 LPCS 281100Z VRB09KT CAVOK 15/04 Q1016
LPMR - Monte Real(Por-A, Portugal
Distance from station: N 67km
Actualizado: 28/03/2020 10:00
NÃO Actual
Céu Limpo
Céu Limpo
 Vento de ESE
Vento: ESE 13 km/h
Temperatura: 15°C
Ponto de Orvalho: 4°C
Humidade: 48%
Barómetro: 1017 hPa
Resumo: Céu Limpo
Visibilidade: greater than 10 km
2020/03/28 10:00 LPMR 281000Z 12007KT 080V160 CAVOK 15/04 Q1017